Time;durP1;ratioP1;P1;durP2;ratioP2;P2;SDS_P1;SDS_P2;PMS_P1;PMS_P2;Temp;Humidity;BMP_temperature;BMP_pressure;BME280_temperature;BME280_humidity;BME280_pressure;Samples;Min_cycle;Max_cycle;Signal;HPM_P1;HPM_P2
2024/03/10 00:00:24;;;;;;;26.70;14.25;;;;;;;;;;5024787;28;20044;-52
2024/03/10 00:02:50;;;;;;;30.27;12.93;;;;;;;;;;5023802;28;20101;-53
2024/03/10 00:05:15;;;;;;;23.73;12.63;;;;;;;;;;5024379;28;20116;-53
2024/03/10 00:07:41;;;;;;;25.90;14.82;;;;;;;;;;5021671;28;20085;-48
2024/03/10 00:10:07;;;;;;;24.40;13.38;;;;;;;;;;5026700;28;20029;-51
2024/03/10 00:12:32;;;;;;;26.98;14.00;;;;;;;;;;5025660;28;20454;-51
2024/03/10 00:14:57;;;;;;;27.77;14.75;;;;;;;;;;5026716;28;20561;-53
2024/03/10 00:17:23;;;;;;;21.98;13.13;;;;;;;;;;5026193;28;20025;-49
2024/03/10 00:19:48;;;;;;;22.88;13.43;;;;;;;;;;5028608;28;20535;-51
2024/03/10 00:22:14;;;;;;;27.50;14.63;;;;;;;;;;5026914;28;20079;-52
2024/03/10 00:24:39;;;;;;;24.52;13.07;;;;;;;;;;5028740;28;20094;-53
2024/03/10 00:27:04;;;;;;;26.92;13.10;;;;;;;;;;5026979;28;20478;-51
2024/03/10 00:29:29;;;;;;;22.45;13.18;;;;;;;;;;5025826;28;20082;-52
2024/03/10 00:31:55;;;;;;;29.23;13.90;;;;;;;;;;5027330;28;20319;-48
2024/03/10 00:34:20;;;;;;;27.13;14.18;;;;;;;;;;5028274;28;20029;-49
2024/03/10 00:36:45;;;;;;;24.80;13.48;;;;;;;;;;5026914;28;20045;-51
2024/03/10 00:39:10;;;;;;;26.30;12.85;;;;;;;;;;5027561;28;20021;-53
2024/03/10 00:41:36;;;;;;;27.40;13.75;;;;;;;;;;5028483;28;20029;-52
2024/03/10 00:44:02;;;;;;;25.58;12.75;;;;;;;;;;5026735;28;20510;-54
2024/03/10 00:46:28;;;;;;;27.67;12.88;;;;;;;;;;5028408;28;20124;-50
2024/03/10 00:48:53;;;;;;;23.75;13.32;;;;;;;;;;5027142;28;20120;-52
2024/03/10 00:51:19;;;;;;;24.23;13.15;;;;;;;;;;5020377;28;20037;-49
2024/03/10 00:53:45;;;;;;;27.63;13.82;;;;;;;;;;5023461;28;20120;-50
2024/03/10 00:56:10;;;;;;;25.63;12.45;;;;;;;;;;5011717;28;20029;-51
2024/03/10 00:58:36;;;;;;;24.20;13.50;;;;;;;;;;5021963;28;20040;-50
2024/03/10 01:01:01;;;;;;;21.75;13.40;;;;;;;;;;5027979;28;20048;-50
2024/03/10 01:03:27;;;;;;;27.73;12.45;;;;;;;;;;5025983;28;20481;-50
2024/03/10 01:05:52;;;;;;;23.48;13.25;;;;;;;;;;5025203;28;20057;-52
2024/03/10 01:08:18;;;;;;;25.90;12.90;;;;;;;;;;5026391;28;20419;-51
2024/03/10 01:10:44;;;;;;;22.60;12.90;;;;;;;;;;5027939;28;20026;-50
2024/03/10 01:13:10;;;;;;;21.30;12.23;;;;;;;;;;5024395;28;20103;-50
2024/03/10 01:15:35;;;;;;;22.88;12.52;;;;;;;;;;5025128;28;20025;-53
2024/03/10 01:18:01;;;;;;;22.08;12.07;;;;;;;;;;5025862;28;20024;-51
2024/03/10 01:20:26;;;;;;;21.05;11.95;;;;;;;;;;5027359;28;20022;-50
2024/03/10 01:22:51;;;;;;;22.85;13.35;;;;;;;;;;5026057;28;20025;-50
2024/03/10 01:25:17;;;;;;;28.70;13.18;;;;;;;;;;5027562;28;20473;-52
2024/03/10 01:27:43;;;;;;;24.33;13.65;;;;;;;;;;5025857;28;20028;-51
2024/03/10 01:30:10;;;;;;;22.13;11.88;;;;;;;;;;5027763;28;20041;-52
2024/03/10 01:32:35;;;;;;;20.17;11.55;;;;;;;;;;5025523;28;20033;-52
2024/03/10 01:35:00;;;;;;;19.80;12.18;;;;;;;;;;5027811;28;20425;-53
2024/03/10 01:37:26;;;;;;;24.92;13.68;;;;;;;;;;5025170;28;20017;-49
2024/03/10 01:39:51;;;;;;;25.08;13.32;;;;;;;;;;5027494;28;20128;-51
2024/03/10 01:42:17;;;;;;;25.00;13.63;;;;;;;;;;5025951;28;20040;-49
2024/03/10 01:44:43;;;;;;;25.75;13.65;;;;;;;;;;5027011;28;20049;-52
2024/03/10 01:47:08;;;;;;;28.13;12.95;;;;;;;;;;5025394;28;20025;-52
2024/03/10 01:49:34;;;;;;;26.17;13.38;;;;;;;;;;5021553;28;20041;-51
2024/03/10 01:51:59;;;;;;;23.67;13.18;;;;;;;;;;5025412;28;20436;-51
2024/03/10 01:54:25;;;;;;;26.55;14.45;;;;;;;;;;5027397;28;20470;-53
2024/03/10 01:56:51;;;;;;;23.70;13.43;;;;;;;;;;5013570;28;20033;-50
2024/03/10 01:59:17;;;;;;;24.17;13.70;;;;;;;;;;5026417;28;20040;-51
2024/03/10 02:01:45;;;;;;;22.58;13.13;;;;;;;;;;5026884;28;20060;-52
2024/03/10 02:04:11;;;;;;;24.58;13.38;;;;;;;;;;5023688;28;20033;-51
2024/03/10 02:06:36;;;;;;;23.50;14.63;;;;;;;;;;5020754;28;20087;-53
2024/03/10 02:09:03;;;;;;;24.83;13.10;;;;;;;;;;5020622;28;20030;-52
2024/03/10 02:11:28;;;;;;;22.52;13.10;;;;;;;;;;5016864;28;20024;-48
2024/03/10 02:13:54;;;;;;;26.00;12.98;;;;;;;;;;5025177;28;20100;-52
2024/03/10 02:16:19;;;;;;;24.48;12.80;;;;;;;;;;5036924;28;20029;-53
2024/03/10 02:18:44;;;;;;;25.45;12.00;;;;;;;;;;5027894;28;20516;-51
2024/03/10 02:21:11;;;;;;;26.23;12.90;;;;;;;;;;5026634;28;20033;-53
2024/03/10 02:23:42;;;;;;;25.05;14.02;;;;;;;;;;5025312;28;20022;-55
2024/03/10 02:26:08;;;;;;;25.60;13.45;;;;;;;;;;5026670;28;20099;-51
2024/03/10 02:28:46;;;;;;;21.90;13.48;;;;;;;;;;5023204;28;20025;-49
2024/03/10 02:47:55;;;;;;;23.20;13.00;;;;;;;;;;4992145;28;20045;-48
2024/03/10 02:50:21;;;;;;;25.42;13.10;;;;;;;;;;5002945;28;20048;-48
2024/03/10 02:52:46;;;;;;;25.40;13.43;;;;;;;;;;5000791;28;20022;-54
2024/03/10 02:55:12;;;;;;;27.98;14.70;;;;;;;;;;5003289;28;20387;-49
2024/03/10 02:57:37;;;;;;;23.98;13.02;;;;;;;;;;5000421;28;20104;-51
2024/03/10 03:00:03;;;;;;;26.70;13.65;;;;;;;;;;5003206;28;20398;-51
2024/03/10 03:02:29;;;;;;;25.27;13.30;;;;;;;;;;5001312;28;20079;-49
2024/03/10 03:04:54;;;;;;;27.10;14.85;;;;;;;;;;5002946;28;20041;-50
2024/03/10 03:07:20;;;;;;;30.80;14.50;;;;;;;;;;5000372;28;20034;-51
2024/03/10 03:09:46;;;;;;;27.15;14.68;;;;;;;;;;5002862;28;20161;-48
2024/03/10 03:12:11;;;;;;;25.98;13.93;;;;;;;;;;4999990;28;20026;-51
2024/03/10 03:14:36;;;;;;;24.73;13.90;;;;;;;;;;5010677;28;20021;-48
2024/03/10 03:17:03;;;;;;;29.50;15.43;;;;;;;;;;5023628;28;20033;-51
2024/03/10 03:19:28;;;;;;;24.73;13.63;;;;;;;;;;5022653;28;20371;-50
2024/03/10 03:21:54;;;;;;;29.90;15.77;;;;;;;;;;5022962;28;20026;-49
2024/03/10 03:24:19;;;;;;;30.42;14.98;;;;;;;;;;5025181;28;20548;-52
2024/03/10 03:26:46;;;;;;;28.55;15.98;;;;;;;;;;5030228;28;20021;-50
2024/03/10 03:29:12;;;;;;;27.35;14.60;;;;;;;;;;5004891;28;20528;-51
2024/03/10 03:31:38;;;;;;;29.77;15.02;;;;;;;;;;5014081;28;20025;-48
2024/03/10 03:34:03;;;;;;;27.05;14.40;;;;;;;;;;5023489;28;20471;-47
2024/03/10 03:36:29;;;;;;;26.52;14.63;;;;;;;;;;5023754;28;20028;-51
2024/03/10 03:38:55;;;;;;;26.55;14.10;;;;;;;;;;5023539;28;20072;-50
2024/03/10 03:41:20;;;;;;;28.00;15.60;;;;;;;;;;5024640;28;20038;-50
2024/03/10 03:43:46;;;;;;;27.35;15.98;;;;;;;;;;5023193;28;20039;-50
2024/03/10 03:46:11;;;;;;;30.38;14.23;;;;;;;;;;5024598;28;20057;-50
2024/03/10 03:48:36;;;;;;;27.92;15.23;;;;;;;;;;5023625;28;20032;-50
2024/03/10 03:51:02;;;;;;;32.00;15.13;;;;;;;;;;5025443;28;20018;-49
2024/03/10 03:53:27;;;;;;;31.77;15.15;;;;;;;;;;5022966;28;20025;-50
2024/03/10 03:55:53;;;;;;;25.92;14.63;;;;;;;;;;5024861;28;20025;-52
2024/03/10 03:58:21;;;;;;;27.92;15.82;;;;;;;;;;5011918;28;20026;-51
2024/03/10 04:00:46;;;;;;;31.92;14.80;;;;;;;;;;5010363;28;20116;-50
2024/03/10 04:03:11;;;;;;;29.30;15.85;;;;;;;;;;5031495;28;20125;-50
2024/03/10 04:05:38;;;;;;;29.00;16.58;;;;;;;;;;5004149;28;20042;-48
2024/03/10 04:08:04;;;;;;;31.45;15.52;;;;;;;;;;5023157;28;20026;-48
2024/03/10 04:10:30;;;;;;;26.63;14.43;;;;;;;;;;5023835;28;20044;-52
2024/03/10 04:12:55;;;;;;;29.35;15.98;;;;;;;;;;5021341;28;20466;-49
2024/03/10 04:15:21;;;;;;;25.63;14.70;;;;;;;;;;5024964;28;20025;-49
2024/03/10 04:17:46;;;;;;;27.63;15.00;;;;;;;;;;5023032;28;20084;-51
2024/03/10 04:20:13;;;;;;;31.70;16.08;;;;;;;;;;5024617;28;20111;-51
2024/03/10 04:22:39;;;;;;;28.58;16.60;;;;;;;;;;5023018;28;20447;-51
2024/03/10 04:25:07;;;;;;;28.42;16.02;;;;;;;;;;5024891;28;20026;-54
2024/03/10 04:27:34;;;;;;;32.78;16.58;;;;;;;;;;5023672;28;20030;-49
2024/03/10 04:29:59;;;;;;;27.38;15.52;;;;;;;;;;5024657;28;20389;-51
2024/03/10 04:32:24;;;;;;;36.25;17.10;;;;;;;;;;5022574;28;20026;-51
2024/03/10 04:34:49;;;;;;;31.15;16.60;;;;;;;;;;5024736;28;20061;-52
2024/03/10 04:37:15;;;;;;;32.28;17.00;;;;;;;;;;5023528;28;20216;-49
2024/03/10 04:39:40;;;;;;;31.10;16.95;;;;;;;;;;5023779;28;20029;-50
2024/03/10 04:42:05;;;;;;;34.30;17.55;;;;;;;;;;5023263;28;20450;-53
2024/03/10 04:44:31;;;;;;;32.65;17.20;;;;;;;;;;5024498;28;20615;-50
2024/03/10 04:46:57;;;;;;;35.20;17.15;;;;;;;;;;5022979;28;20032;-52
2024/03/10 04:49:22;;;;;;;32.20;16.80;;;;;;;;;;5024973;28;20037;-52
2024/03/10 04:51:48;;;;;;;33.92;18.48;;;;;;;;;;5023646;28;20484;-50
2024/03/10 04:54:13;;;;;;;31.13;17.58;;;;;;;;;;5026577;28;20113;-52
2024/03/10 04:56:38;;;;;;;26.92;15.65;;;;;;;;;;5028248;28;20033;-52
2024/03/10 04:59:03;;;;;;;38.72;18.00;;;;;;;;;;5025875;28;20042;-50
2024/03/10 05:01:29;;;;;;;31.40;17.42;;;;;;;;;;5028140;28;20033;-51
2024/03/10 05:03:54;;;;;;;36.88;18.38;;;;;;;;;;5026391;28;20458;-48
2024/03/10 05:06:19;;;;;;;34.42;17.52;;;;;;;;;;5026408;28;20029;-51
2024/03/10 05:08:46;;;;;;;36.45;18.70;;;;;;;;;;5026044;28;20034;-51
2024/03/10 05:11:11;;;;;;;35.97;19.17;;;;;;;;;;5024951;28;20409;-52
2024/03/10 05:13:37;;;;;;;33.42;19.15;;;;;;;;;;5025800;28;20037;-48
2024/03/10 05:16:02;;;;;;;36.88;20.48;;;;;;;;;;5028133;28;20021;-52
2024/03/10 05:18:28;;;;;;;34.90;18.65;;;;;;;;;;5020183;28;20629;-54
2024/03/10 05:20:53;;;;;;;39.70;18.75;;;;;;;;;;5027834;28;20665;-51
2024/03/10 05:23:18;;;;;;;44.80;19.60;;;;;;;;;;5031180;28;20036;-52
2024/03/10 05:25:43;;;;;;;36.45;20.05;;;;;;;;;;5027620;28;20040;-51
2024/03/10 05:28:10;;;;;;;39.03;20.05;;;;;;;;;;5025987;28;20110;-52
2024/03/10 05:30:36;;;;;;;37.30;20.45;;;;;;;;;;5027435;28;20478;-50
2024/03/10 05:33:01;;;;;;;37.53;20.00;;;;;;;;;;5026091;28;20033;-52
2024/03/10 05:35:26;;;;;;;38.85;20.10;;;;;;;;;;5026298;28;20071;-49
2024/03/10 05:37:52;;;;;;;38.42;20.17;;;;;;;;;;5025517;28;20049;-46
2024/03/10 05:40:18;;;;;;;42.25;21.05;;;;;;;;;;5026866;28;20018;-53
2024/03/10 05:42:43;;;;;;;40.10;20.30;;;;;;;;;;5030141;28;20029;-52
2024/03/10 05:45:09;;;;;;;39.35;20.52;;;;;;;;;;5027281;28;20062;-51
2024/03/10 05:47:34;;;;;;;37.97;19.83;;;;;;;;;;5025285;28;20425;-50
2024/03/10 05:50:00;;;;;;;45.50;22.88;;;;;;;;;;5027387;28;20071;-50
2024/03/10 05:52:26;;;;;;;37.97;20.30;;;;;;;;;;5025241;28;20032;-51
2024/03/10 05:54:51;;;;;;;39.42;18.83;;;;;;;;;;5027297;28;20468;-50
2024/03/10 05:57:17;;;;;;;46.88;23.38;;;;;;;;;;5024925;28;20109;-52
2024/03/10 05:59:43;;;;;;;46.97;20.15;;;;;;;;;;5022537;28;20021;-48
2024/03/10 06:02:08;;;;;;;38.70;20.00;;;;;;;;;;5012288;28;20044;-51
2024/03/10 06:04:33;;;;;;;35.90;19.48;;;;;;;;;;5027125;28;20458;-52
2024/03/10 06:06:59;;;;;;;35.92;19.23;;;;;;;;;;5025384;28;20022;-54
2024/03/10 06:09:27;;;;;;;41.35;20.20;;;;;;;;;;5026845;28;20598;-51
2024/03/10 06:11:52;;;;;;;42.92;20.98;;;;;;;;;;5023594;28;20244;-52
2024/03/10 06:14:17;;;;;;;37.90;20.67;;;;;;;;;;5025380;28;20420;-51
2024/03/10 06:16:43;;;;;;;39.15;21.13;;;;;;;;;;5026353;28;20476;-48
2024/03/10 06:27:02;;;;;;;40.22;18.48;;;;;;;;;;5022488;28;20441;-50
2024/03/10 06:29:27;;;;;;;37.47;18.48;;;;;;;;;;5024848;28;20033;-54
2024/03/10 06:31:55;;;;;;;35.08;18.98;;;;;;;;;;5025138;28;20433;-51
2024/03/10 06:34:21;;;;;;;33.57;18.73;;;;;;;;;;5025882;28;20557;-51
2024/03/10 06:36:46;;;;;;;38.00;19.38;;;;;;;;;;5023651;28;20033;-51
2024/03/10 06:39:15;;;;;;;32.28;17.77;;;;;;;;;;5022307;28;20087;-52
2024/03/10 06:41:41;;;;;;;38.83;18.98;;;;;;;;;;5023778;28;20041;-50
2024/03/10 06:44:06;;;;;;;34.20;17.10;;;;;;;;;;5023939;28;20037;-52
2024/03/10 06:46:31;;;;;;;38.72;18.48;;;;;;;;;;5025723;28;20416;-51
2024/03/10 06:48:57;;;;;;;32.97;19.00;;;;;;;;;;5023282;28;20030;-48
2024/03/10 06:51:22;;;;;;;35.90;18.13;;;;;;;;;;5024726;28;20573;-53
2024/03/10 06:53:48;;;;;;;34.42;19.13;;;;;;;;;;5024062;28;20394;-50
2024/03/10 06:56:14;;;;;;;36.35;19.45;;;;;;;;;;5025939;28;20017;-50
2024/03/10 06:58:44;;;;;;;37.00;18.83;;;;;;;;;;5024367;28;20025;-49
2024/03/10 07:01:10;;;;;;;38.92;18.98;;;;;;;;;;5024639;28;20100;-51
2024/03/10 07:03:35;;;;;;;40.17;19.35;;;;;;;;;;5024319;28;20485;-51
2024/03/10 07:06:01;;;;;;;34.63;18.58;;;;;;;;;;5023778;28;20033;-52
2024/03/10 07:08:27;;;;;;;32.28;18.90;;;;;;;;;;5023071;28;20261;-52
2024/03/10 07:10:52;;;;;;;36.50;19.50;;;;;;;;;;5025392;28;20026;-49
2024/03/10 07:13:20;;;;;;;39.22;18.95;;;;;;;;;;5022745;28;20025;-50
2024/03/10 07:15:48;;;;;;;36.22;18.45;;;;;;;;;;5023131;28;20506;-48
2024/03/10 07:18:14;;;;;;;38.38;18.73;;;;;;;;;;5025378;28;20029;-54
2024/03/10 07:20:40;;;;;;;35.80;18.42;;;;;;;;;;5025578;28;20025;-49
2024/03/10 07:23:05;;;;;;;32.83;17.33;;;;;;;;;;5024505;28;20402;-49
2024/03/10 07:25:31;;;;;;;34.13;19.17;;;;;;;;;;5025433;28;20029;-46
2024/03/10 07:27:56;;;;;;;39.25;19.30;;;;;;;;;;5032321;28;20469;-49
2024/03/10 07:30:21;;;;;;;29.30;18.27;;;;;;;;;;5045220;28;20182;-49
2024/03/10 07:32:47;;;;;;;36.40;19.02;;;;;;;;;;5032329;28;20030;-50
2024/03/10 07:35:13;;;;;;;31.92;18.50;;;;;;;;;;5025226;28;20045;-53
2024/03/10 07:37:38;;;;;;;41.35;20.27;;;;;;;;;;5029150;28;20021;-51
2024/03/10 07:40:15;;;;;;;30.60;17.63;;;;;;;;;;5045509;28;20119;-47
2024/03/10 07:42:40;;;;;;;36.13;18.92;;;;;;;;;;5034778;28;20486;-51
2024/03/10 07:45:06;;;;;;;30.23;18.00;;;;;;;;;;5024930;28;20140;-53
2024/03/10 07:47:32;;;;;;;28.23;16.48;;;;;;;;;;5023594;28;20075;-51
2024/03/10 07:49:57;;;;;;;31.48;18.33;;;;;;;;;;5025490;28;20033;-48
2024/03/10 07:52:22;;;;;;;28.23;16.17;;;;;;;;;;5022319;28;20025;-50
2024/03/10 07:54:47;;;;;;;33.70;17.75;;;;;;;;;;5025065;28;20301;-47
2024/03/10 07:57:13;;;;;;;26.90;16.52;;;;;;;;;;5023638;28;20053;-49
2024/03/10 07:59:38;;;;;;;30.95;17.42;;;;;;;;;;5025201;28;20061;-48
2024/03/10 08:02:03;;;;;;;30.70;17.48;;;;;;;;;;5019020;28;20042;-48
2024/03/10 08:04:29;;;;;;;32.85;17.67;;;;;;;;;;5025056;28;20028;-51
2024/03/10 08:06:54;;;;;;;27.90;16.42;;;;;;;;;;5023456;28;20276;-51
2024/03/10 08:09:19;;;;;;;34.95;16.10;;;;;;;;;;5024982;28;20037;-51
2024/03/10 08:11:45;;;;;;;26.63;14.93;;;;;;;;;;5022405;28;20045;-50
2024/03/10 08:14:10;;;;;;;28.75;14.93;;;;;;;;;;5023576;28;20184;-51
2024/03/10 08:16:36;;;;;;;27.70;14.90;;;;;;;;;;5025099;28;20736;-48
2024/03/10 08:19:01;;;;;;;27.27;14.50;;;;;;;;;;5023343;28;20064;-49
2024/03/10 08:21:26;;;;;;;25.02;13.50;;;;;;;;;;5025193;28;20106;-48
2024/03/10 08:23:52;;;;;;;25.33;14.65;;;;;;;;;;5023685;28;20146;-48
2024/03/10 08:26:18;;;;;;;26.60;14.45;;;;;;;;;;5023179;28;20033;-50
2024/03/10 08:28:43;;;;;;;21.20;12.88;;;;;;;;;;5025602;28;20029;-48
2024/03/10 08:31:08;;;;;;;31.60;15.30;;;;;;;;;;5028809;28;20076;-51
2024/03/10 08:33:34;;;;;;;24.33;14.27;;;;;;;;;;5026424;28;20026;-49
2024/03/10 08:36:00;;;;;;;23.02;14.13;;;;;;;;;;5027290;28;20679;-49
2024/03/10 08:38:26;;;;;;;28.98;15.25;;;;;;;;;;5026629;28;20267;-49
2024/03/10 08:40:53;;;;;;;27.17;14.77;;;;;;;;;;5027643;28;20565;-51
2024/03/10 08:43:18;;;;;;;26.63;13.70;;;;;;;;;;5026327;28;20116;-49
2024/03/10 08:45:44;;;;;;;25.23;14.63;;;;;;;;;;5028188;28;20133;-49
2024/03/10 08:48:10;;;;;;;24.25;14.90;;;;;;;;;;5025183;28;20033;-48
2024/03/10 08:50:36;;;;;;;25.85;14.40;;;;;;;;;;5025444;28;20033;-50
2024/03/10 08:53:04;;;;;;;24.02;13.73;;;;;;;;;;5026756;28;20119;-51
2024/03/10 08:55:29;;;;;;;20.23;13.25;;;;;;;;;;5028686;28;20064;-49
2024/03/10 08:57:54;;;;;;;24.85;13.98;;;;;;;;;;5026528;28;20130;-50
2024/03/10 09:00:20;;;;;;;22.88;14.57;;;;;;;;;;5028224;28;20048;-51
2024/03/10 09:02:46;;;;;;;25.70;14.70;;;;;;;;;;5026730;28;20041;-49
2024/03/10 09:05:12;;;;;;;25.25;13.75;;;;;;;;;;5047494;28;20029;-51
2024/03/10 09:07:41;;;;;;;24.75;14.00;;;;;;;;;;5038473;28;20036;-49
2024/03/10 09:10:06;;;;;;;;;;;;;;;;;;5028312;28;20378;-53
2024/03/10 09:12:32;;;;;;;23.30;13.60;;;;;;;;;;5024230;28;20324;-49
2024/03/10 09:14:58;;;;;;;23.58;12.85;;;;;;;;;;5027966;28;20398;-49
2024/03/10 09:17:24;;;;;;;28.20;12.85;;;;;;;;;;5025803;28;20031;-50
2024/03/10 09:19:50;;;;;;;22.27;13.00;;;;;;;;;;5026728;28;20678;-51
2024/03/10 09:22:15;;;;;;;23.63;14.27;;;;;;;;;;5026066;28;20100;-50
2024/03/10 09:24:42;;;;;;;22.27;13.00;;;;;;;;;;5026557;28;20120;-49
2024/03/10 09:27:07;;;;;;;22.35;13.38;;;;;;;;;;5026126;28;20022;-52
2024/03/10 09:29:34;;;;;;;20.10;12.45;;;;;;;;;;5012212;28;20103;-51
2024/03/10 09:32:01;;;;;;;19.77;12.57;;;;;;;;;;5025521;28;20024;-50
2024/03/10 09:34:26;;;;;;;24.45;14.02;;;;;;;;;;5027316;28;20072;-49
2024/03/10 09:36:51;;;;;;;25.92;13.57;;;;;;;;;;5024946;28;20461;-52
2024/03/10 09:39:17;;;;;;;22.05;12.57;;;;;;;;;;5026437;28;20055;-50
2024/03/10 09:41:43;;;;;;;22.88;12.23;;;;;;;;;;5027171;28;20044;-51
2024/03/10 09:44:13;;;;;;;26.15;13.50;;;;;;;;;;5025256;28;20120;-51
2024/03/10 09:46:39;;;;;;;17.50;11.68;;;;;;;;;;5026918;28;20030;-49
2024/03/10 09:49:06;;;;;;;25.77;13.75;;;;;;;;;;5025558;28;20032;-51
2024/03/10 09:51:33;;;;;;;20.30;12.43;;;;;;;;;;5026191;28;20025;-47
2024/03/10 09:53:59;;;;;;;24.13;13.00;;;;;;;;;;5017220;28;20072;-49
2024/03/10 09:56:24;;;;;;;20.42;12.63;;;;;;;;;;5027150;28;20033;-50
2024/03/10 09:58:54;;;;;;;24.77;14.20;;;;;;;;;;5024990;28;20024;-51
2024/03/10 10:01:20;;;;;;;25.27;14.10;;;;;;;;;;5025072;28;20118;-47
2024/03/10 10:03:49;;;;;;;22.75;13.32;;;;;;;;;;5025902;28;20044;-47
2024/03/10 10:06:16;;;;;;;22.70;11.82;;;;;;;;;;5026776;28;20474;-48
2024/03/10 10:08:42;;;;;;;24.75;13.10;;;;;;;;;;5024772;28;20325;-51
2024/03/10 10:11:08;;;;;;;21.90;12.93;;;;;;;;;;5024893;28;20021;-52
2024/03/10 10:13:33;;;;;;;23.83;12.50;;;;;;;;;;5025087;28;20025;-50
2024/03/10 10:15:59;;;;;;;23.45;13.07;;;;;;;;;;5026377;28;20039;-48
2024/03/10 10:18:27;;;;;;;21.05;12.35;;;;;;;;;;5024869;28;20025;-48
2024/03/10 10:20:53;;;;;;;22.20;12.97;;;;;;;;;;5027040;28;20017;-49
2024/03/10 10:23:21;;;;;;;22.00;12.40;;;;;;;;;;5024926;28;20621;-49
2024/03/10 10:25:47;;;;;;;22.65;12.18;;;;;;;;;;5026396;28;20014;-51
2024/03/10 10:28:13;;;;;;;22.35;13.48;;;;;;;;;;5023381;28;20029;-51
2024/03/10 10:30:40;;;;;;;21.00;12.48;;;;;;;;;;5026819;28;20474;-47
2024/03/10 10:33:06;;;;;;;24.10;13.25;;;;;;;;;;5023722;28;20013;-51
2024/03/10 10:35:38;;;;;;;25.85;14.75;;;;;;;;;;5025103;28;20112;-49
2024/03/10 10:38:11;;;;;;;25.63;14.52;;;;;;;;;;5024447;28;20075;-49
2024/03/10 10:40:36;;;;;;;24.52;14.35;;;;;;;;;;5025334;28;20028;-48
2024/03/10 10:43:02;;;;;;;21.20;13.20;;;;;;;;;;5027862;28;20029;-50
2024/03/10 10:45:27;;;;;;;25.10;12.98;;;;;;;;;;5025816;28;20087;-49
2024/03/10 10:47:53;;;;;;;21.63;14.20;;;;;;;;;;5024800;28;20026;-49
2024/03/10 10:50:31;;;;;;;21.85;13.48;;;;;;;;;;5024767;28;20381;-49
2024/03/10 10:52:56;;;;;;;27.60;13.75;;;;;;;;;;5024033;28;20044;-54
2024/03/10 10:55:22;;;;;;;25.52;13.10;;;;;;;;;;5026223;28;20060;-50
2024/03/10 10:57:47;;;;;;;28.85;13.35;;;;;;;;;;5024202;28;20040;-51
2024/03/10 11:00:28;;;;;;;25.98;13.02;;;;;;;;;;5026075;28;20502;-50
2024/03/10 11:03:14;;;;;;;24.58;14.02;;;;;;;;;;5023787;28;20036;-49
2024/03/10 11:05:45;;;;;;;23.58;12.70;;;;;;;;;;5024360;28;20039;-50
2024/03/10 11:08:13;;;;;;;19.70;11.68;;;;;;;;;;5024029;28;20539;-48
2024/03/10 11:10:49;;;;;;;23.38;12.52;;;;;;;;;;5025637;28;20051;-48
2024/03/10 11:13:15;;;;;;;23.73;12.40;;;;;;;;;;5022040;28;20063;-49
2024/03/10 11:15:41;;;;;;;21.20;12.90;;;;;;;;;;5022949;28;20033;-49
2024/03/10 11:18:20;;;;;;;21.55;12.88;;;;;;;;;;5015876;28;20128;-48
2024/03/10 11:20:46;;;;;;;19.95;11.45;;;;;;;;;;5025868;28;20041;-52
2024/03/10 11:23:11;;;;;;;18.40;11.55;;;;;;;;;;5022125;28;20409;-53
2024/03/10 11:25:36;;;;;;;22.67;12.90;;;;;;;;;;5025663;28;20025;-49
2024/03/10 11:28:02;;;;;;;19.10;11.32;;;;;;;;;;5021854;28;20302;-51
2024/03/10 11:30:40;;;;;;;17.88;11.80;;;;;;;;;;5025448;28;20071;-49
2024/03/10 11:33:06;;;;;;;19.88;11.02;;;;;;;;;;5023113;28;20079;-50
2024/03/10 11:35:31;;;;;;;18.67;11.48;;;;;;;;;;5025115;28;20029;-50
2024/03/10 11:37:59;;;;;;;18.48;11.55;;;;;;;;;;5023627;28;20433;-52
2024/03/10 11:40:30;;;;;;;20.57;11.53;;;;;;;;;;5023962;28;20029;-49
2024/03/10 11:42:56;;;;;;;16.63;11.20;;;;;;;;;;5023712;28;20041;-51
2024/03/10 11:45:22;;;;;;;23.15;12.48;;;;;;;;;;5024866;28;20097;-50
2024/03/10 11:47:47;;;;;;;18.10;10.98;;;;;;;;;;5023177;28;20033;-48
2024/03/10 11:50:14;;;;;;;17.35;10.13;;;;;;;;;;5022446;28;20026;-52
2024/03/10 11:52:39;;;;;;;17.30;10.48;;;;;;;;;;5023583;28;20075;-48
2024/03/10 11:55:11;;;;;;;17.00;10.73;;;;;;;;;;5025355;28;20029;-50
2024/03/10 11:57:38;;;;;;;17.70;10.45;;;;;;;;;;5022006;28;20044;-52
2024/03/10 12:00:05;;;;;;;23.27;11.75;;;;;;;;;;5023961;28;20399;-50
2024/03/10 12:02:30;;;;;;;18.50;11.70;;;;;;;;;;5027184;28;20033;-47
2024/03/10 12:04:55;;;;;;;18.38;9.90;;;;;;;;;;5029168;28;20029;-51
2024/03/10 12:07:23;;;;;;;20.60;11.98;;;;;;;;;;5026633;28;20405;-54
2024/03/10 12:09:53;;;;;;;17.83;11.40;;;;;;;;;;5029003;28;20022;-50
2024/03/10 12:12:19;;;;;;;19.23;11.57;;;;;;;;;;5025284;28;20112;-50
2024/03/10 12:14:44;;;;;;;18.23;10.77;;;;;;;;;;5028632;28;20388;-50
2024/03/10 12:17:15;;;;;;;18.73;9.75;;;;;;;;;;5026739;28;20383;-50
2024/03/10 12:19:42;;;;;;;19.10;10.20;;;;;;;;;;5028549;28;20021;-52
2024/03/10 12:22:07;;;;;;;18.02;10.68;;;;;;;;;;5026971;28;20108;-55
2024/03/10 12:24:33;;;;;;;16.80;10.25;;;;;;;;;;5027681;28;20029;-50
2024/03/10 12:27:04;;;;;;;18.90;10.02;;;;;;;;;;5027053;28;20045;-50
2024/03/10 12:29:29;;;;;;;19.25;9.98;;;;;;;;;;5028709;28;20060;-48
2024/03/10 12:31:55;;;;;;;18.90;9.60;;;;;;;;;;5026771;28;20052;-50
2024/03/10 12:34:21;;;;;;;23.40;10.77;;;;;;;;;;5047142;28;20258;-52
2024/03/10 12:36:46;;;;;;;20.10;9.55;;;;;;;;;;5038526;28;20247;-52
2024/03/10 12:39:12;;;;;;;18.98;9.43;;;;;;;;;;5028140;28;20075;-49
2024/03/10 12:41:37;;;;;;;16.15;8.32;;;;;;;;;;5024476;28;20087;-52
2024/03/10 12:44:03;;;;;;;17.63;9.90;;;;;;;;;;5026956;28;20038;-53
2024/03/10 12:46:28;;;;;;;13.35;8.68;;;;;;;;;;5028727;28;20021;-51
2024/03/10 12:48:54;;;;;;;18.60;8.82;;;;;;;;;;5027111;28;20352;-54
2024/03/10 12:51:19;;;;;;;13.05;7.53;;;;;;;;;;5028340;28;20024;-51
2024/03/10 12:53:45;;;;;;;14.10;8.55;;;;;;;;;;5026550;28;20492;-49
2024/03/10 12:56:13;;;;;;;12.07;6.88;;;;;;;;;;5026712;28;20056;-49
2024/03/10 12:58:39;;;;;;;15.50;6.38;;;;;;;;;;5025899;28;20056;-49
2024/03/10 13:01:04;;;;;;;11.75;6.90;;;;;;;;;;5028205;28;20029;-49
2024/03/10 13:03:31;;;;;;;10.18;7.10;;;;;;;;;;5025929;28;20393;-52
2024/03/10 13:05:57;;;;;;;14.32;8.73;;;;;;;;;;5027142;28;20036;-51
2024/03/10 13:08:23;;;;;;;18.08;8.02;;;;;;;;;;5033899;28;20025;-54
2024/03/10 13:10:48;;;;;;;11.68;7.50;;;;;;;;;;5027756;28;20535;-54
2024/03/10 13:13:14;;;;;;;11.57;6.70;;;;;;;;;;5023814;28;20068;-52
2024/03/10 13:15:41;;;;;;;11.10;6.53;;;;;;;;;;5027500;28;20484;-50
2024/03/10 13:18:08;;;;;;;12.07;6.75;;;;;;;;;;5026136;28;20025;-50
2024/03/10 13:20:35;;;;;;;16.70;7.15;;;;;;;;;;5024594;28;21331;-50
2024/03/10 13:23:00;;;;;;;18.35;7.68;;;;;;;;;;5024108;28;20036;-51
2024/03/10 13:25:27;;;;;;;14.27;7.55;;;;;;;;;;5027593;28;20045;-48
2024/03/10 13:27:52;;;;;;;14.30;7.88;;;;;;;;;;5023597;28;20029;-53
2024/03/10 13:30:17;;;;;;;16.65;7.57;;;;;;;;;;5025534;28;20091;-50
2024/03/10 13:32:43;;;;;;;9.73;5.65;;;;;;;;;;5025549;28;20043;-54
2024/03/10 13:35:08;;;;;;;13.10;6.13;;;;;;;;;;5027689;28;20076;-50
2024/03/10 13:37:34;;;;;;;12.45;7.28;;;;;;;;;;5025657;28;20513;-51
2024/03/10 13:40:10;;;;;;;14.18;7.32;;;;;;;;;;5027752;28;20021;-52
2024/03/10 13:42:37;;;;;;;15.38;7.45;;;;;;;;;;5025795;28;20033;-51
2024/03/10 13:45:04;;;;;;;12.43;7.53;;;;;;;;;;5025835;28;20056;-50
2024/03/10 13:47:30;;;;;;;17.55;7.95;;;;;;;;;;5025198;28;20025;-49
2024/03/10 13:49:55;;;;;;;20.92;9.07;;;;;;;;;;5027129;28;20422;-50
2024/03/10 13:52:20;;;;;;;17.40;8.55;;;;;;;;;;5025468;28;20127;-49
2024/03/10 13:54:46;;;;;;;18.63;8.23;;;;;;;;;;5026823;28;20168;-50
2024/03/10 13:57:15;;;;;;;18.05;8.38;;;;;;;;;;5025824;28;20422;-48
2024/03/10 13:59:40;;;;;;;17.33;8.60;;;;;;;;;;5025740;28;20033;-51
2024/03/10 14:02:06;;;;;;;17.48;9.18;;;;;;;;;;5024945;28;20461;-52
2024/03/10 14:04:32;;;;;;;19.08;8.52;;;;;;;;;;5026530;28;20025;-51
2024/03/10 14:06:58;;;;;;;18.52;7.93;;;;;;;;;;5022293;28;20036;-50
2024/03/10 14:09:23;;;;;;;19.70;8.88;;;;;;;;;;5024631;28;20029;-49
2024/03/10 14:11:49;;;;;;;16.17;9.18;;;;;;;;;;5024121;28;20037;-50
2024/03/10 14:14:14;;;;;;;15.65;8.68;;;;;;;;;;5026595;28;20017;-52
2024/03/10 14:16:39;;;;;;;20.47;8.90;;;;;;;;;;5026400;28;20109;-52
2024/03/10 14:19:04;;;;;;;16.33;7.87;;;;;;;;;;5024601;28;20265;-49
2024/03/10 14:21:30;;;;;;;22.50;10.23;;;;;;;;;;5026533;28;20599;-47
2024/03/10 14:23:57;;;;;;;14.50;9.10;;;;;;;;;;5025074;28;20392;-53
2024/03/10 14:26:22;;;;;;;17.63;8.75;;;;;;;;;;5025481;28;20037;-50
2024/03/10 14:28:48;;;;;;;16.60;9.88;;;;;;;;;;5019822;28;20036;-50
2024/03/10 14:31:14;;;;;;;16.80;9.43;;;;;;;;;;5026416;28;20022;-51
2024/03/10 14:33:40;;;;;;;22.83;9.18;;;;;;;;;;5024766;28;20013;-52
2024/03/10 14:36:08;;;;;;;18.92;10.05;;;;;;;;;;5025802;28;20025;-52